Time;durP1;ratioP1;P1;durP2;ratioP2;P2;SDS_P1;SDS_P2;PMS_P1;PMS_P2;Temp;Humidity;BMP_temperature;BMP_pressure;BME280_temperature;BME280_humidity;BME280_pressure;Samples;Min_cycle;Max_cycle;Signal;HPM_P1;HPM_P2
2023/06/01 00:01:23;;;;;;;;;;;20.40;60.20;;;;;;6272480;28;20008;-68
2023/06/01 00:04:24;;;;;;;;;;;20.40;60.20;;;;;;6272530;28;20166;-69
2023/06/01 00:07:24;;;;;;;;;;;20.40;60.30;;;;;;6272417;28;19924;-68
2023/06/01 00:10:25;;;;;;;;;;;20.40;60.30;;;;;;6272072;28;19920;-68
2023/06/01 00:13:25;;;;;;;;;;;20.40;60.20;;;;;;6272221;28;19916;-68
2023/06/01 00:16:26;;;;;;;;;;;20.40;61.10;;;;;;6272151;28;19915;-68
2023/06/01 00:19:26;;;;;;;;;;;20.30;60.20;;;;;;6272232;28;19909;-68
2023/06/01 00:22:28;;;;;;;;;;;20.40;60.30;;;;;;6272062;28;20011;-69
2023/06/01 00:25:29;;;;;;;;;;;20.40;60.30;;;;;;6272007;28;19909;-69
2023/06/01 00:28:29;;;;;;;;;;;20.40;60.30;;;;;;6271891;28;19939;-68
2023/06/01 00:31:30;;;;;;;;;;;20.30;60.20;;;;;;6271933;28;19909;-69
2023/06/01 00:34:30;;;;;;;;;;;20.40;60.30;;;;;;6271556;28;20011;-68
2023/06/01 00:37:31;;;;;;;;;;;20.40;60.30;;;;;;6271658;28;20392;-68
2023/06/01 00:40:32;;;;;;;;;;;20.40;60.30;;;;;;6271266;28;19915;-68
2023/06/01 00:43:32;;;;;;;;;;;20.40;60.30;;;;;;6271724;28;19916;-68
2023/06/01 00:46:33;;;;;;;;;;;20.40;60.30;;;;;;6271301;28;20459;-69
2023/06/01 00:49:34;;;;;;;;;;;20.40;60.30;;;;;;6271843;28;19936;-68
2023/06/01 00:52:36;;;;;;;;;;;20.40;60.30;;;;;;6270954;28;19912;-68
2023/06/01 00:55:37;;;;;;;;;;;20.40;60.30;;;;;;6271300;28;19976;-68
2023/06/01 00:58:38;;;;;;;;;;;20.40;60.30;;;;;;6271810;28;19962;-69
2023/06/01 01:01:42;;;;;;;;;;;20.40;60.30;;;;;;6270247;28;19932;-69
2023/06/01 01:04:42;;;;;;;;;;;20.40;60.30;;;;;;6271209;28;19917;-69
2023/06/01 01:07:49;;;;;;;;;;;20.40;60.30;;;;;;6270880;28;20449;-69
2023/06/01 01:11:03;;;;;;;;;;;20.40;60.30;;;;;;6270352;28;20007;-69
2023/06/01 01:14:11;;;;;;;;;;;20.40;60.30;;;;;;6270738;28;19909;-69
2023/06/01 01:17:26;;;;;;;;;;;20.40;60.30;;;;;;6271129;28;19916;-69
2023/06/01 01:20:28;;;;;;;;;;;20.40;60.30;;;;;;6270432;28;20540;-69
2023/06/01 01:23:29;;;;;;;;;;;20.30;60.20;;;;;;6270316;28;19913;-69
2023/06/01 01:26:41;;;;;;;;;;;20.40;60.30;;;;;;6270470;28;20420;-69
2023/06/01 01:29:43;;;;;;;;;;;20.40;60.30;;;;;;6270703;28;19978;-69
2023/06/01 01:32:44;;;;;;;;;;;20.40;60.30;;;;;;6270651;28;19912;-69
2023/06/01 01:35:45;;;;;;;;;;;20.40;60.30;;;;;;6270103;28;20007;-69
2023/06/01 01:38:46;;;;;;;;;;;20.40;60.30;;;;;;6270294;28;20379;-69
2023/06/01 01:41:47;;;;;;;;;;;20.40;60.30;;;;;;6270234;28;19917;-69
2023/06/01 01:44:47;;;;;;;;;;;20.40;60.30;;;;;;6270425;28;20318;-69
2023/06/01 01:47:55;;;;;;;;;;;20.40;60.30;;;;;;6270522;28;19967;-69
2023/06/01 01:50:58;;;;;;;;;;;20.40;60.30;;;;;;6270132;28;20406;-69
2023/06/01 01:53:59;;;;;;;;;;;20.30;60.20;;;;;;6269478;28;20006;-69
2023/06/01 01:57:01;;;;;;;;;;;20.40;60.30;;;;;;6269955;28;19909;-69
2023/06/01 02:00:02;;;;;;;;;;;20.40;60.30;;;;;;6269914;28;19920;-69
2023/06/01 02:03:03;;;;;;;;;;;20.40;60.30;;;;;;6269780;28;19908;-69
2023/06/01 02:06:03;;;;;;;;;;;20.40;60.30;;;;;;6269498;28;19917;-69
2023/06/01 02:09:07;;;;;;;;;;;20.40;60.30;;;;;;6269467;28;20008;-69
2023/06/01 02:12:07;;;;;;;;;;;20.40;60.30;;;;;;6245071;28;19940;-69
2023/06/01 02:15:08;;;;;;;;;;;20.30;60.30;;;;;;6252439;28;20283;-69
2023/06/01 02:18:11;;;;;;;;;;;20.40;60.30;;;;;;6269654;28;19912;-69
2023/06/01 02:21:15;;;;;;;;;;;20.40;60.40;;;;;;6268602;28;20011;-69
2023/06/01 02:24:16;;;;;;;;;;;20.40;60.40;;;;;;6268769;28;19909;-69
2023/06/01 02:27:16;;;;;;;;;;;20.30;60.30;;;;;;6268937;28;19927;-68
2023/06/01 02:30:17;;;;;;;;;;;20.40;60.40;;;;;;6269367;28;19920;-69
2023/06/01 02:33:17;;;;;;;;;;;20.30;60.30;;;;;;6269352;28;19945;-69
2023/06/01 02:36:18;;;;;;;;;;;20.40;60.30;;;;;;6269076;28;19917;-69
2023/06/01 02:39:18;;;;;;;;;;;20.30;60.30;;;;;;6268900;28;20031;-69
2023/06/01 02:42:19;;;;;;;;;;;20.40;60.40;;;;;;6268860;28;19916;-69
2023/06/01 02:45:19;;;;;;;;;;;20.40;60.40;;;;;;6268647;28;20190;-69
2023/06/01 02:48:20;;;;;;;;;;;20.40;60.30;;;;;;6269024;28;19917;-69
2023/06/01 02:51:21;;;;;;;;;;;20.40;60.40;;;;;;6268760;28;20457;-69
2023/06/01 02:54:21;;;;;;;;;;;20.40;60.40;;;;;;6268185;28;19967;-69
2023/06/01 02:57:21;;;;;;;;;;;20.30;60.20;;;;;;6268543;28;20050;-69
2023/06/01 03:00:22;;;;;;;;;;;20.40;60.40;;;;;;6268466;28;19937;-69
2023/06/01 03:03:23;;;;;;;;;;;20.40;60.30;;;;;;6268170;28;20003;-69
2023/06/01 03:06:23;;;;;;;;;;;20.40;60.40;;;;;;6268034;28;19917;-69
2023/06/01 03:09:24;;;;;;;;;;;20.30;60.30;;;;;;6268342;28;20025;-69
2023/06/01 03:12:25;;;;;;;;;;;20.40;60.30;;;;;;6268531;28;19924;-69
2023/06/01 03:15:27;;;;;;;;;;;20.40;60.30;;;;;;6267857;28;19917;-69
2023/06/01 03:18:27;;;;;;;;;;;20.40;60.40;;;;;;6267996;28;19969;-69
2023/06/01 03:21:28;;;;;;;;;;;20.40;60.40;;;;;;6267814;28;19913;-69
2023/06/01 03:24:28;;;;;;;;;;;20.40;61.30;;;;;;6268218;28;19919;-69
2023/06/01 03:27:29;;;;;;;;;;;20.40;60.40;;;;;;6267470;28;20368;-69
2023/06/01 03:30:30;;;;;;;;;;;20.40;60.40;;;;;;6268185;28;19912;-68
2023/06/01 03:33:31;;;;;;;;;;;20.40;60.40;;;;;;6267009;28;19913;-68
2023/06/01 03:36:32;;;;;;;;;;;20.40;60.40;;;;;;6267059;28;19920;-68
2023/06/01 03:39:34;;;;;;;;;;;20.30;60.30;;;;;;6268153;28;19913;-69
2023/06/01 03:42:34;;;;;;;;;;;20.40;60.40;;;;;;6267684;28;19909;-69
2023/06/01 03:45:35;;;;;;;;;;;20.40;60.40;;;;;;6267861;28;20295;-69
2023/06/01 03:48:35;;;;;;;;;;;20.30;60.30;;;;;;6267650;28;19921;-69
2023/06/01 03:51:36;;;;;;;;;;;20.40;60.40;;;;;;6267787;28;20390;-68
2023/06/01 03:54:36;;;;;;;;;;;20.40;60.40;;;;;;6267311;28;19921;-68
2023/06/01 03:57:37;;;;;;;;;;;20.40;60.40;;;;;;6249702;28;19909;-69
2023/06/01 04:00:38;;;;;;;;;;;20.40;60.40;;;;;;6267823;28;19960;-68
2023/06/01 04:03:39;;;;;;;;;;;20.40;60.40;;;;;;6267767;28;20364;-68
2023/06/01 04:06:41;;;;;;;;;;;20.30;60.40;;;;;;6267692;28;19986;-68
2023/06/01 04:09:42;;;;;;;;;;;20.40;60.40;;;;;;6267453;28;20035;-68
2023/06/01 04:12:43;;;;;;;;;;;20.40;60.40;;;;;;6267256;28;19912;-71
2023/06/01 04:15:45;;;;;;;;;;;20.30;60.30;;;;;;6267335;28;19999;-69
2023/06/01 04:18:45;;;;;;;;;;;20.40;60.40;;;;;;6267187;28;20464;-69
2023/06/01 04:21:46;;;;;;;;;;;20.40;60.40;;;;;;6267418;28;19909;-69
2023/06/01 04:24:46;;;;;;;;;;;20.40;60.40;;;;;;6267037;28;20402;-70
2023/06/01 04:27:48;;;;;;;;;;;20.40;60.40;;;;;;6267099;28;20023;-69
2023/06/01 04:30:51;;;;;;;;;;;20.30;60.30;;;;;;6267389;28;19913;-69
2023/06/01 04:33:56;;;;;;;;;;;20.40;60.40;;;;;;6267048;28;20291;-69
2023/06/01 04:36:56;;;;;;;;;;;20.30;60.30;;;;;;6267211;28;20375;-69
2023/06/01 04:39:57;;;;;;;;;;;20.40;60.40;;;;;;6267316;28;19909;-69
2023/06/01 04:42:57;;;;;;;;;;;20.40;60.40;;;;;;6266870;28;19913;-69
2023/06/01 04:46:03;;;;;;;;;;;20.30;60.30;;;;;;6270050;28;19912;-69
2023/06/01 04:49:04;;;;;;;;;;;20.40;60.40;;;;;;6270734;28;19966;-69
2023/06/01 04:52:05;;;;;;;;;;;20.40;60.40;;;;;;6271645;28;19909;-69
2023/06/01 04:55:06;;;;;;;;;;;20.40;60.40;;;;;;6271208;28;20394;-69
2023/06/01 04:58:07;;;;;;;;;;;20.30;60.40;;;;;;6271322;28;19909;-69
2023/06/01 05:01:07;;;;;;;;;;;20.30;60.40;;;;;;6270219;28;19916;-69
2023/06/01 05:04:08;;;;;;;;;;;20.30;60.40;;;;;;6270674;28;19916;-69
2023/06/01 05:07:08;;;;;;;;;;;20.40;60.40;;;;;;6270710;28;20263;-69
2023/06/01 05:10:10;;;;;;;;;;;20.40;60.40;;;;;;6270863;28;19909;-69
2023/06/01 05:13:10;;;;;;;;;;;20.40;60.40;;;;;;6271082;28;20322;-69
2023/06/01 05:16:11;;;;;;;;;;;20.30;60.30;;;;;;6271146;28;19919;-69
2023/06/01 05:19:12;;;;;;;;;;;20.40;60.40;;;;;;6270913;28;20386;-69
2023/06/01 05:22:13;;;;;;;;;;;20.40;60.40;;;;;;6270760;28;19935;-69
2023/06/01 05:25:13;;;;;;;;;;;20.40;60.50;;;;;;6270630;28;19908;-69
2023/06/01 05:28:14;;;;;;;;;;;20.40;60.40;;;;;;6270403;28;19971;-69
2023/06/01 05:31:15;;;;;;;;;;;20.40;60.40;;;;;;6270638;28;19909;-69
2023/06/01 05:34:16;;;;;;;;;;;20.40;60.40;;;;;;6270304;28;19931;-69
2023/06/01 05:37:16;;;;;;;;;;;20.40;60.40;;;;;;6270494;28;19913;-69
2023/06/01 05:40:17;;;;;;;;;;;20.40;60.40;;;;;;6270183;28;19909;-69
2023/06/01 05:43:17;;;;;;;;;;;20.30;60.40;;;;;;6269883;28;19921;-69
2023/06/01 05:46:18;;;;;;;;;;;20.40;60.50;;;;;;6270396;28;19916;-69
2023/06/01 05:49:19;;;;;;;;;;;20.40;60.50;;;;;;6269535;28;19912;-69
2023/06/01 05:52:19;;;;;;;;;;;20.30;60.30;;;;;;6270037;28;19908;-69
2023/06/01 05:55:20;;;;;;;;;;;20.40;60.50;;;;;;6269310;28;20011;-69
2023/06/01 05:58:20;;;;;;;;;;;20.30;60.40;;;;;;6268709;28;20427;-69
2023/06/01 06:01:22;;;;;;;;;;;20.30;60.40;;;;;;6270693;28;19913;-69
2023/06/01 06:04:22;;;;;;;;;;;20.30;60.30;;;;;;6271496;28;19913;-69
2023/06/01 06:07:23;;;;;;;;;;;20.30;60.40;;;;;;6271758;28;20438;-69
2023/06/01 06:10:23;;;;;;;;;;;20.40;60.50;;;;;;6266277;28;19909;-69
2023/06/01 06:13:24;;;;;;;;;;;20.40;60.40;;;;;;6271588;28;19909;-69
2023/06/01 06:16:25;;;;;;;;;;;20.40;60.40;;;;;;6271353;28;20034;-69
2023/06/01 06:19:25;;;;;;;;;;;20.30;60.40;;;;;;6258530;28;19916;-68
2023/06/01 06:22:26;;;;;;;;;;;20.30;60.40;;;;;;6270140;28;19909;-69
2023/06/01 06:25:26;;;;;;;;;;;20.30;60.40;;;;;;6266670;28;20477;-68
2023/06/01 06:28:27;;;;;;;;;;;20.30;60.40;;;;;;6268641;28;20301;-69
2023/06/01 06:31:28;;;;;;;;;;;20.30;60.40;;;;;;6270380;28;19909;-69
2023/06/01 06:34:35;;;;;;;;;;;20.40;60.50;;;;;;6270995;28;19909;-69
2023/06/01 06:37:35;;;;;;;;;;;20.40;60.60;;;;;;6271844;28;19996;-69
2023/06/01 06:40:36;;;;;;;;;;;20.40;60.60;;;;;;6271211;28;19955;-69
2023/06/01 06:43:36;;;;;;;;;;;20.40;60.40;;;;;;6271768;28;19913;-70
2023/06/01 06:46:37;;;;;;;;;;;20.30;60.30;;;;;;6271466;28;20303;-69
2023/06/01 06:49:37;;;;;;;;;;;20.30;60.40;;;;;;6270025;28;19915;-69
2023/06/01 06:52:38;;;;;;;;;;;20.30;60.40;;;;;;6271918;28;20303;-69
2023/06/01 06:55:38;;;;;;;;;;;20.30;60.40;;;;;;6271051;28;19912;-68
2023/06/01 06:58:39;;;;;;;;;;;20.30;60.40;;;;;;6271227;28;19909;-69
2023/06/01 07:01:40;;;;;;;;;;;20.40;60.70;;;;;;6271109;28;20000;-69
2023/06/01 07:04:41;;;;;;;;;;;20.40;60.60;;;;;;6270802;28;19950;-69
2023/06/01 07:07:42;;;;;;;;;;;20.40;60.70;;;;;;6271272;28;19917;-69
2023/06/01 07:10:42;;;;;;;;;;;20.30;60.60;;;;;;6270257;28;20383;-69
2023/06/01 07:13:43;;;;;;;;;;;20.30;60.60;;;;;;6270630;28;19920;-69
2023/06/01 07:16:43;;;;;;;;;;;20.40;60.70;;;;;;6270574;28;19909;-69
2023/06/01 07:19:44;;;;;;;;;;;20.40;60.70;;;;;;6253004;28;20339;-68
2023/06/01 07:22:44;;;;;;;;;;;20.40;60.70;;;;;;6261277;28;19923;-68
2023/06/01 07:25:45;;;;;;;;;;;20.30;60.50;;;;;;6270167;28;19996;-69
2023/06/01 07:28:46;;;;;;;;;;;20.30;60.50;;;;;;6271095;28;20335;-69
2023/06/01 07:31:46;;;;;;;;;;;20.40;60.30;;;;;;6270376;28;19924;-69
2023/06/01 07:34:47;;;;;;;;;;;20.40;60.20;;;;;;6270424;28;19920;-68
2023/06/01 07:37:47;;;;;;;;;;;20.40;60.10;;;;;;6270344;28;19994;-68
2023/06/01 07:40:49;;;;;;;;;;;20.40;60.10;;;;;;6269712;28;20410;-68
2023/06/01 07:43:51;;;;;;;;;;;20.40;60.00;;;;;;6270581;28;19987;-68
2023/06/01 07:46:51;;;;;;;;;;;20.40;60.20;;;;;;6270224;28;19962;-68
2023/06/01 07:49:52;;;;;;;;;;;20.40;60.20;;;;;;6270401;28;19909;-68
2023/06/01 07:52:53;;;;;;;;;;;20.40;60.30;;;;;;6268922;28;19919;-68
2023/06/01 07:55:54;;;;;;;;;;;20.40;60.30;;;;;;6269915;28;19955;-69
2023/06/01 07:58:54;;;;;;;;;;;20.40;60.40;;;;;;6270855;28;19962;-69
2023/06/01 08:01:56;;;;;;;;;;;20.40;60.30;;;;;;6270144;28;19908;-69
2023/06/01 08:04:56;;;;;;;;;;;20.40;60.30;;;;;;6270581;28;19912;-69
2023/06/01 08:07:57;;;;;;;;;;;20.40;60.30;;;;;;6270198;28;19917;-69
2023/06/01 08:10:57;;;;;;;;;;;20.40;60.30;;;;;;6270040;28;19909;-69
2023/06/01 08:14:02;;;;;;;;;;;20.30;60.20;;;;;;6270090;28;19917;-69
2023/06/01 08:17:03;;;;;;;;;;;20.30;60.20;;;;;;6260152;28;19908;-69
2023/06/01 08:20:10;;;;;;;;;;;20.40;60.30;;;;;;6271809;28;19916;-69
2023/06/01 08:23:11;;;;;;;;;;;20.40;60.30;;;;;;6274876;28;19909;-69
2023/06/01 08:26:11;;;;;;;;;;;20.40;60.30;;;;;;6274427;28;19983;-69
2023/06/01 08:29:12;;;;;;;;;;;20.30;60.30;;;;;;6275060;28;19912;-69
2023/06/01 08:32:13;;;;;;;;;;;20.30;60.20;;;;;;6274359;28;19909;-69
2023/06/01 08:35:15;;;;;;;;;;;20.40;60.30;;;;;;6275066;28;20009;-69
2023/06/01 08:38:15;;;;;;;;;;;20.40;60.30;;;;;;6274248;28;19908;-69
2023/06/01 08:41:16;;;;;;;;;;;20.30;60.30;;;;;;6274195;28;20374;-69
2023/06/01 08:44:20;;;;;;;;;;;20.40;60.40;;;;;;6274717;28;20367;-69
2023/06/01 08:47:21;;;;;;;;;;;20.40;60.40;;;;;;6274244;28;19924;-69
2023/06/01 08:50:22;;;;;;;;;;;20.40;60.40;;;;;;6274367;28;19916;-68
2023/06/01 08:53:23;;;;;;;;;;;20.30;60.30;;;;;;6274182;28;19920;-69
2023/06/01 08:56:23;;;;;;;;;;;20.40;60.40;;;;;;6265956;28;19955;-69
2023/06/01 08:59:24;;;;;;;;;;;20.40;60.40;;;;;;6274557;28;19908;-69
2023/06/01 09:02:25;;;;;;;;;;;20.40;60.40;;;;;;6273764;28;19913;-69
2023/06/01 09:05:26;;;;;;;;;;;20.40;60.40;;;;;;6274653;28;19970;-69
2023/06/01 09:08:26;;;;;;;;;;;20.30;60.40;;;;;;6273853;28;19983;-69
2023/06/01 09:11:27;;;;;;;;;;;20.30;60.30;;;;;;6274055;28;19965;-69
2023/06/01 09:14:27;;;;;;;;;;;20.40;60.50;;;;;;6273035;28;19912;-69
2023/06/01 09:17:28;;;;;;;;;;;20.30;60.30;;;;;;6272834;28;19967;-69
2023/06/01 09:20:29;;;;;;;;;;;20.40;60.40;;;;;;6273090;28;19916;-69
2023/06/01 09:23:29;;;;;;;;;;;20.40;60.40;;;;;;6272985;28;19908;-69
2023/06/01 09:26:30;;;;;;;;;;;20.30;60.30;;;;;;6266505;28;19983;-69
2023/06/01 09:29:31;;;;;;;;;;;20.30;60.30;;;;;;6273749;28;19908;-69
2023/06/01 09:32:33;;;;;;;;;;;20.40;60.40;;;;;;6272184;28;19909;-69
2023/06/01 09:35:38;;;;;;;;;;;20.30;60.30;;;;;;6273758;28;19917;-69
2023/06/01 09:38:39;;;;;;;;;;;20.30;60.30;;;;;;6273304;28;19963;-69
2023/06/01 09:41:45;;;;;;;;;;;20.30;60.30;;;;;;6273518;28;19909;-69
2023/06/01 09:44:46;;;;;;;;;;;20.30;60.30;;;;;;6273270;28;20231;-69
2023/06/01 09:47:47;;;;;;;;;;;20.30;60.30;;;;;;6272688;28;19971;-69
2023/06/01 09:50:47;;;;;;;;;;;20.30;60.30;;;;;;6263978;28;19917;-69
2023/06/01 09:53:48;;;;;;;;;;;20.30;60.30;;;;;;6272381;28;19921;-68
2023/06/01 09:56:48;;;;;;;;;;;20.30;60.30;;;;;;6273026;28;19952;-69
2023/06/01 09:59:49;;;;;;;;;;;20.40;60.50;;;;;;6261103;28;19915;-69
2023/06/01 10:02:51;;;;;;;;;;;20.30;60.20;;;;;;6272446;28;20248;-69
2023/06/01 10:05:52;;;;;;;;;;;20.40;60.30;;;;;;6272519;28;20295;-69
2023/06/01 10:08:53;;;;;;;;;;;20.40;60.30;;;;;;6272509;28;20375;-68
2023/06/01 10:11:55;;;;;;;;;;;20.30;60.20;;;;;;6272713;28;19935;-69
2023/06/01 10:14:55;;;;;;;;;;;20.40;60.30;;;;;;6271750;28;19912;-69
2023/06/01 10:17:56;;;;;;;;;;;20.30;60.30;;;;;;6272300;28;19909;-69
2023/06/01 10:20:57;;;;;;;;;;;20.40;60.30;;;;;;6271932;28;19920;-69
2023/06/01 10:23:58;;;;;;;;;;;20.30;60.30;;;;;;6271704;28;19908;-69
2023/06/01 10:27:20;;;;;;;;;;;20.30;60.20;;;;;;6272123;28;19959;-69
2023/06/01 10:30:21;;;;;;;;;;;20.30;60.20;;;;;;6268136;28;19913;-69
2023/06/01 10:33:41;;;;;;;;;;;20.30;60.30;;;;;;6271389;28;20437;-69
2023/06/01 10:36:51;;;;;;;;;;;20.30;60.30;;;;;;6271676;28;19908;-69
2023/06/01 10:39:52;;;;;;;;;;;20.30;60.30;;;;;;6271653;28;20376;-69
2023/06/01 10:42:52;;;;;;;;;;;20.30;60.30;;;;;;6270991;28;19916;-69
2023/06/01 10:45:53;;;;;;;;;;;20.30;60.30;;;;;;6271119;28;19955;-68
2023/06/01 10:48:54;;;;;;;;;;;20.30;60.30;;;;;;6271281;28;19915;-69
2023/06/01 10:52:32;;;;;;;;;;;20.30;60.30;;;;;;6271797;28;20374;-69
2023/06/01 10:55:34;;;;;;;;;;;20.30;60.30;;;;;;6213984;28;19983;-69
2023/06/01 10:58:35;;;;;;;;;;;20.30;60.30;;;;;;6271236;28;19908;-69
2023/06/01 11:01:45;;;;;;;;;;;20.30;60.30;;;;;;6268956;28;19908;-69
2023/06/01 11:04:46;;;;;;;;;;;20.30;60.30;;;;;;6270314;28;20020;-69
2023/06/01 11:07:47;;;;;;;;;;;20.30;60.30;;;;;;6270157;28;20092;-69
2023/06/01 11:10:50;;;;;;;;;;;20.30;60.30;;;;;;6270090;28;19955;-69
2023/06/01 11:14:08;;;;;;;;;;;20.30;60.30;;;;;;6269707;28;19916;-69
2023/06/01 11:17:34;;;;;;;;;;;20.30;60.40;;;;;;6245732;28;20007;-69
2023/06/01 11:20:39;;;;;;;;;;;20.30;60.30;;;;;;6263287;28;19956;-69
2023/06/01 11:23:40;;;;;;;;;;;20.30;60.30;;;;;;6270561;28;19908;-69
2023/06/01 11:26:46;;;;;;;;;;;20.30;60.30;;;;;;6270066;28;20299;-69
2023/06/01 11:29:48;;;;;;;;;;;20.30;60.30;;;;;;6270629;28;19920;-69
2023/06/01 11:32:51;;;;;;;;;;;20.30;60.30;;;;;;6271028;28;19909;-69
2023/06/01 11:36:04;;;;;;;;;;;20.30;60.40;;;;;;6270257;28;19966;-69
2023/06/01 11:39:07;;;;;;;;;;;20.30;60.40;;;;;;6270629;28;19966;-69
2023/06/01 11:42:09;;;;;;;;;;;20.30;60.30;;;;;;6270352;28;19996;-69
2023/06/01 11:45:14;;;;;;;;;;;20.30;60.30;;;;;;6270110;28;20066;-69
2023/06/01 11:48:14;;;;;;;;;;;20.30;60.30;;;;;;6270145;28;19917;-68
2023/06/01 11:51:17;;;;;;;;;;;20.30;60.30;;;;;;6267745;28;19955;-69
2023/06/01 11:54:21;;;;;;;;;;;20.30;60.30;;;;;;6269914;28;19925;-69
2023/06/01 11:57:22;;;;;;;;;;;20.30;60.30;;;;;;6274288;28;19920;-69
2023/06/01 12:00:23;;;;;;;;;;;20.30;60.30;;;;;;6272323;28;20276;-68
2023/06/01 12:03:26;;;;;;;;;;;20.30;60.30;;;;;;6274122;28;19908;-69
2023/06/01 12:06:27;;;;;;;;;;;20.30;60.30;;;;;;6274094;28;19924;-69
2023/06/01 12:09:28;;;;;;;;;;;20.30;60.30;;;;;;6274475;28;19936;-68
2023/06/01 12:12:29;;;;;;;;;;;20.30;60.30;;;;;;6274063;28;19909;-69
2023/06/01 12:15:29;;;;;;;;;;;20.30;60.40;;;;;;6274206;28;19959;-69
2023/06/01 12:18:30;;;;;;;;;;;20.30;60.30;;;;;;6265996;28;20687;-69
2023/06/01 12:21:31;;;;;;;;;;;20.30;60.30;;;;;;6274464;28;19909;-69
2023/06/01 12:24:32;;;;;;;;;;;20.30;60.40;;;;;;6274289;28;19908;-68
2023/06/01 12:27:36;;;;;;;;;;;20.30;60.30;;;;;;6273557;28;19988;-69
2023/06/01 12:30:36;;;;;;;;;;;20.30;60.30;;;;;;6273988;28;19966;-69
2023/06/01 12:33:37;;;;;;;;;;;20.30;60.40;;;;;;6273834;28;19912;-69
2023/06/01 12:36:38;;;;;;;;;;;20.30;60.40;;;;;;6273928;28;19908;-69
2023/06/01 12:39:41;;;;;;;;;;;20.30;60.40;;;;;;6273287;28;19972;-69
2023/06/01 12:42:42;;;;;;;;;;;20.30;60.40;;;;;;6273691;28;19916;-69
2023/06/01 12:45:43;;;;;;;;;;;20.30;60.30;;;;;;6273974;28;19909;-69
2023/06/01 12:48:44;;;;;;;;;;;20.30;60.30;;;;;;6273032;28;19970;-68
2023/06/01 12:51:45;;;;;;;;;;;20.30;60.30;;;;;;6273576;28;20251;-69
2023/06/01 12:54:46;;;;;;;;;;;20.30;60.30;;;;;;6273628;28;19925;-68
2023/06/01 12:57:53;;;;;;;;;;;20.30;60.30;;;;;;6263753;28;19947;-68
2023/06/01 13:00:54;;;;;;;;;;;20.30;60.30;;;;;;6273639;28;19909;-68
2023/06/01 13:03:55;;;;;;;;;;;20.30;60.40;;;;;;6273402;28;19909;-69
2023/06/01 13:06:56;;;;;;;;;;;20.30;60.40;;;;;;6272760;28;20023;-69
2023/06/01 13:09:58;;;;;;;;;;;20.30;60.40;;;;;;6273124;28;19913;-69
2023/06/01 13:12:59;;;;;;;;;;;20.30;60.40;;;;;;6272523;28;19920;-68
2023/06/01 13:16:00;;;;;;;;;;;20.30;60.40;;;;;;6273421;28;19908;-69
2023/06/01 13:19:01;;;;;;;;;;;20.30;60.40;;;;;;6272434;28;19913;-69
2023/06/01 13:22:01;;;;;;;;;;;20.30;60.40;;;;;;6272837;28;20582;-69
2023/06/01 13:25:02;;;;;;;;;;;20.30;60.40;;;;;;6272215;28;19999;-69
2023/06/01 13:28:02;;;;;;;;;;;20.30;60.40;;;;;;6272402;28;19917;-69
2023/06/01 13:31:03;;;;;;;;;;;20.30;60.40;;;;;;6272228;28;20274;-69
2023/06/01 13:34:04;;;;;;;;;;;20.30;60.50;;;;;;6272857;28;19916;-68
2023/06/01 13:37:04;;;;;;;;;;;20.30;60.40;;;;;;6272197;28;19916;-69
2023/06/01 13:40:05;;;;;;;;;;;20.30;60.40;;;;;;6272224;28;19909;-69
2023/06/01 13:43:06;;;;;;;;;;;20.30;60.40;;;;;;6272059;28;20012;-68
2023/06/01 13:46:07;;;;;;;;;;;20.30;60.40;;;;;;6272670;28;19939;-68
2023/06/01 13:49:08;;;;;;;;;;;20.30;60.40;;;;;;6271338;28;20322;-68
2023/06/01 13:52:09;;;;;;;;;;;20.30;60.40;;;;;;6272428;28;19955;-69
2023/06/01 13:55:10;;;;;;;;;;;20.30;60.40;;;;;;6271767;28;20375;-69
2023/06/01 13:58:10;;;;;;;;;;;20.30;60.40;;;;;;6271916;28;19909;-69
2023/06/01 14:01:11;;;;;;;;;;;20.30;60.40;;;;;;6271835;28;20427;-68
2023/06/01 14:04:11;;;;;;;;;;;20.30;60.40;;;;;;6271820;28;19939;-68
2023/06/01 14:07:12;;;;;;;;;;;20.30;60.40;;;;;;6271883;28;19920;-68
2023/06/01 14:10:14;;;;;;;;;;;20.30;60.40;;;;;;6271438;28;19944;-69
2023/06/01 14:13:15;;;;;;;;;;;20.30;60.40;;;;;;6270960;28;20371;-68
2023/06/01 14:16:15;;;;;;;;;;;20.30;60.40;;;;;;6271981;28;19909;-69
2023/06/01 14:19:16;;;;;;;;;;;20.30;60.40;;;;;;6270598;28;20369;-69
2023/06/01 14:22:16;;;;;;;;;;;20.30;60.40;;;;;;6271453;28;19909;-69
2023/06/01 14:25:17;;;;;;;;;;;20.30;60.40;;;;;;6271221;28;19913;-68
2023/06/01 14:28:17;;;;;;;;;;;20.30;60.40;;;;;;6271079;28;19943;-69
2023/06/01 14:31:19;;;;;;;;;;;20.30;60.40;;;;;;6271062;28;19908;-68
2023/06/01 14:34:20;;;;;;;;;;;20.30;60.40;;;;;;6270369;28;19913;-68
2023/06/01 14:37:20;;;;;;;;;;;20.30;60.40;;;;;;6271118;28;19936;-69
2023/06/01 14:40:21;;;;;;;;;;;20.30;60.40;;;;;;6270261;28;19917;-69
2023/06/01 14:43:22;;;;;;;;;;;20.30;60.40;;;;;;6270605;28;19952;-69
2023/06/01 14:46:22;;;;;;;;;;;20.30;60.40;;;;;;6271240;28;20007;-68
2023/06/01 14:49:23;;;;;;;;;;;20.30;60.40;;;;;;6270196;28;19920;-69
2023/06/01 14:52:23;;;;;;;;;;;20.30;60.60;;;;;;6270876;28;20306;-69
2023/06/01 14:55:24;;;;;;;;;;;20.30;60.40;;;;;;6270132;28;19920;-69
2023/06/01 14:58:25;;;;;;;;;;;20.30;60.40;;;;;;6270115;28;19919;-68
2023/06/01 15:01:25;;;;;;;;;;;20.30;60.40;;;;;;6270938;28;19935;-68
2023/06/01 15:04:44;;;;;;;;;;;20.30;60.40;;;;;;6327506;28;20038;-70
2023/06/01 15:07:44;;;;;;;;;;;20.30;60.40;;;;;;6335145;28;20070;-70
2023/06/01 15:10:45;;;;;;;;;;;20.30;60.40;;;;;;6335089;28;19914;-69
2023/06/01 15:13:45;;;;;;;;;;;20.30;60.30;;;;;;6326780;28;19912;-69
2023/06/01 15:16:46;;;;;;;;;;;20.30;60.30;;;;;;6341771;28;19908;-70
2023/06/01 15:19:46;;;;;;;;;;;20.30;60.30;;;;;;6328079;28;19943;-69
2023/06/01 15:22:47;;;;;;;;;;;20.30;60.30;;;;;;6335920;28;19999;-70
2023/06/01 15:25:47;;;;;;;;;;;20.30;60.30;;;;;;6332624;28;19948;-70
2023/06/01 15:28:48;;;;;;;;;;;20.30;60.40;;;;;;6328024;28;19919;-70
2023/06/01 15:31:48;;;;;;;;;;;20.30;60.40;;;;;;6337770;28;19909;-70
2023/06/01 15:34:49;;;;;;;;;;;20.30;60.40;;;;;;6324215;28;19916;-69
2023/06/01 15:37:50;;;;;;;;;;;20.30;60.40;;;;;;6322797;28;20001;-70
2023/06/01 15:40:50;;;;;;;;;;;20.30;60.40;;;;;;6327559;28;20006;-70
2023/06/01 15:43:51;;;;;;;;;;;20.30;60.40;;;;;;6329909;28;19917;-70
2023/06/01 15:46:52;;;;;;;;;;;20.30;60.40;;;;;;6336033;28;20347;-70
2023/06/01 15:49:52;;;;;;;;;;;20.30;60.40;;;;;;6322952;28;19919;-69
2023/06/01 15:52:53;;;;;;;;;;;20.30;60.40;;;;;;6338317;28;19915;-70
2023/06/01 15:55:53;;;;;;;;;;;20.30;60.40;;;;;;6324282;28;19962;-70
2023/06/01 15:58:54;;;;;;;;;;;20.30;60.40;;;;;;6329275;28;19908;-70
2023/06/01 16:01:54;;;;;;;;;;;20.30;60.40;;;;;;6334332;28;20371;-70
2023/06/01 16:04:55;;;;;;;;;;;20.30;60.40;;;;;;6346312;27;20025;-70
2023/06/01 16:07:55;;;;;;;;;;;20.30;60.40;;;;;;6314174;28;20302;-70
2023/06/01 16:10:56;;;;;;;;;;;20.30;60.40;;;;;;6346275;28;19914;-70
2023/06/01 16:13:56;;;;;;;;;;;20.30;60.40;;;;;;6333048;28;20299;-70
2023/06/01 16:16:57;;;;;;;;;;;20.30;60.40;;;;;;6337374;28;19957;-69
2023/06/01 16:19:59;;;;;;;;;;;20.30;60.40;;;;;;6329433;28;19916;-70
2023/06/01 16:23:00;;;;;;;;;;;20.30;60.40;;;;;;6302332;28;20011;-70
2023/06/01 16:26:01;;;;;;;;;;;20.30;60.40;;;;;;6327418;28;19908;-70
2023/06/01 16:29:01;;;;;;;;;;;20.30;60.40;;;;;;6336684;28;19916;-70
2023/06/01 16:32:02;;;;;;;;;;;20.30;60.40;;;;;;6335377;28;19908;-69
2023/06/01 16:35:03;;;;;;;;;;;20.30;60.40;;;;;;6330174;27;19909;-70
2023/06/01 16:38:03;;;;;;;;;;;20.30;60.40;;;;;;6304758;28;19909;-70
2023/06/01 16:41:04;;;;;;;;;;;20.30;60.40;;;;;;6329374;28;19907;-70
2023/06/01 16:44:04;;;;;;;;;;;20.30;60.40;;;;;;6337935;28;19923;-70
2023/06/01 16:47:05;;;;;;;;;;;20.30;60.40;;;;;;6331864;28;19934;-70
2023/06/01 16:50:05;;;;;;;;;;;20.30;60.40;;;;;;6315482;28;20278;-70
2023/06/01 16:53:06;;;;;;;;;;;20.30;60.40;;;;;;6341727;28;20259;-70
2023/06/01 16:56:06;;;;;;;;;;;20.30;60.40;;;;;;6328036;27;20390;-70
2023/06/01 16:59:07;;;;;;;;;;;20.30;60.50;;;;;;6341688;28;20028;-70
2023/06/01 17:02:07;;;;;;;;;;;20.30;60.40;;;;;;6310688;28;19924;-70
2023/06/01 17:05:08;;;;;;;;;;;20.30;60.50;;;;;;6314586;28;20030;-70
2023/06/01 17:08:09;;;;;;;;;;;20.30;60.50;;;;;;6307766;28;20370;-70
2023/06/01 17:11:10;;;;;;;;;;;20.30;60.50;;;;;;6321292;28;19945;-70
2023/06/01 17:14:10;;;;;;;;;;;20.30;60.50;;;;;;6319988;28;19912;-70
2023/06/01 17:17:11;;;;;;;;;;;20.30;60.50;;;;;;6328967;28;19987;-70
2023/06/01 17:20:13;;;;;;;;;;;20.30;60.50;;;;;;6326241;28;20180;-70
2023/06/01 17:23:14;;;;;;;;;;;20.30;60.40;;;;;;6337110;28;19919;-70
2023/06/01 17:26:15;;;;;;;;;;;20.30;60.40;;;;;;6324972;28;20231;-71
2023/06/01 17:29:15;;;;;;;;;;;20.30;60.50;;;;;;6343778;28;19908;-70
2023/06/01 17:32:16;;;;;;;;;;;20.30;60.50;;;;;;6308665;28;20378;-70
2023/06/01 17:35:16;;;;;;;;;;;20.30;60.50;;;;;;6335855;28;19908;-69